createdAt,value
2024-04-17T00:09:23.567Z,0.20
2024-04-17T00:19:26.276Z,0.20
2024-04-17T00:29:28.886Z,0.22
2024-04-17T00:39:31.517Z,0.20
2024-04-17T00:49:34.342Z,0.10
2024-04-17T00:59:37.107Z,0.20
2024-04-17T01:09:39.693Z,0.10
2024-04-17T01:19:42.461Z,0.10
2024-04-17T01:29:45.144Z,0.30
2024-04-17T01:39:47.780Z,0.10
2024-04-17T01:49:50.589Z,0.20
2024-04-17T01:59:53.307Z,0.13
2024-04-17T02:09:56.748Z,0.10
2024-04-17T02:19:59.571Z,0.20
2024-04-17T02:30:02.246Z,0.10
2024-04-17T02:40:05.537Z,0.10
2024-04-17T02:50:08.831Z,0.20
2024-04-17T03:00:12.435Z,0.10
2024-04-17T03:10:15.190Z,0.20
2024-04-17T03:20:18.094Z,0.20
2024-04-17T03:30:22.015Z,0.20
2024-04-17T03:40:24.732Z,0.22
2024-04-17T03:50:27.324Z,0.30
2024-04-17T04:00:30.001Z,0.20
2024-04-17T04:10:32.701Z,0.20
2024-04-17T04:20:35.404Z,0.10
2024-04-17T04:30:41.291Z,0.10
2024-04-17T04:40:43.973Z,0.20
2024-04-17T04:50:46.528Z,0.30
2024-04-17T05:00:49.108Z,0.20
2024-04-17T05:10:51.931Z,0.17
2024-04-17T05:20:54.564Z,0.20
2024-04-17T05:31:01.070Z,0.30
2024-04-17T05:41:03.848Z,0.10
2024-04-17T05:51:06.572Z,0.40
2024-04-17T06:01:09.212Z,0.10
2024-04-17T06:11:12.181Z,0.20
2024-04-17T06:21:14.824Z,0.30
2024-04-17T06:31:17.734Z,0.30
2024-04-17T06:41:20.520Z,0.20
2024-04-17T06:51:23.323Z,0.20
2024-04-17T07:01:26.237Z,0.20
2024-04-17T07:11:29.293Z,0.40
2024-04-17T07:21:32.079Z,0.40
2024-04-17T07:31:34.777Z,0.40
2024-04-17T07:41:37.542Z,0.50
2024-04-17T07:51:40.255Z,0.40
2024-04-17T08:01:42.882Z,0.33
2024-04-17T08:11:45.641Z,0.47
2024-04-17T08:21:48.297Z,0.40
2024-04-17T08:31:51.025Z,0.40
2024-04-17T08:41:56.940Z,0.50
2024-04-17T08:52:04.046Z,0.67
2024-04-17T09:02:15.213Z,0.30
2024-04-17T09:12:18.652Z,0.47
2024-04-17T09:22:21.337Z,0.20
2024-04-17T09:32:24.345Z,0.80
2024-04-17T09:42:27.295Z,0.30
2024-04-17T09:52:30.959Z,0.60
2024-04-17T10:02:34.443Z,0.40
2024-04-17T10:12:37.619Z,0.70
2024-04-17T10:22:40.399Z,0.73
2024-04-17T10:32:43.219Z,0.80
2024-04-17T10:42:46.093Z,0.50
2024-04-17T10:52:49.309Z,0.87
2024-04-17T11:02:54.067Z,0.40
2024-04-17T11:12:56.820Z,0.70
2024-04-17T11:23:07.407Z,0.30
2024-04-17T11:33:12.097Z,0.88
2024-04-17T11:43:17.132Z,0.40
2024-04-17T11:53:20.731Z,0.77
2024-04-17T12:03:23.699Z,0.70
2024-04-17T12:13:26.536Z,0.73
2024-04-17T12:23:29.209Z,0.50
2024-04-17T12:33:32.115Z,0.60
2024-04-17T12:43:38.268Z,0.30
2024-04-17T12:53:41.074Z,0.47
2024-04-17T13:03:44.025Z,0.20
2024-04-17T13:13:46.860Z,0.32
2024-04-17T13:23:49.656Z,0.30
2024-04-17T13:33:52.362Z,0.50
2024-04-17T13:43:55.147Z,0.50
2024-04-17T13:53:57.761Z,0.70
2024-04-17T14:04:00.674Z,0.50
2024-04-17T14:14:03.364Z,0.40
2024-04-17T14:24:06.252Z,0.20
2024-04-17T14:34:08.968Z,0.40
2024-04-17T14:44:11.714Z,0.30
2024-04-17T14:54:14.452Z,0.98
2024-04-17T15:04:17.221Z,0.90
2024-04-17T15:14:21.126Z,0.90
2024-04-17T15:24:23.839Z,1.35
2024-04-17T15:34:26.680Z,0.97
2024-04-17T15:44:29.294Z,0.50
2024-04-17T15:54:31.940Z,0.63
2024-04-17T16:04:34.660Z,0.50
2024-04-17T16:14:37.318Z,0.30
2024-04-17T16:24:41.312Z,0.30
2024-04-17T16:34:44.001Z,0.30
2024-04-17T16:44:48.141Z,0.20
2024-04-17T16:54:50.789Z,0.30
2024-04-17T17:04:54.952Z,0.40
2024-04-17T17:14:57.660Z,0.40
2024-04-17T17:25:01.421Z,0.30
2024-04-17T17:35:05.614Z,0.30
2024-04-17T17:45:09.765Z,0.30
2024-04-17T17:55:17.794Z,0.30
2024-04-17T18:05:20.493Z,0.20
2024-04-17T18:15:23.423Z,0.30
2024-04-17T18:25:26.454Z,0.20
2024-04-17T18:35:29.410Z,0.50
2024-04-17T18:45:32.973Z,0.40
2024-04-17T18:55:35.656Z,0.40
2024-04-17T19:05:38.318Z,0.27
2024-04-17T19:15:41.857Z,0.30
2024-04-17T19:25:53.648Z,0.30
2024-04-17T19:35:57.804Z,0.20
2024-04-17T19:46:01.540Z,0.20
2024-04-17T19:56:04.956Z,0.30
2024-04-17T20:06:09.086Z,0.23
2024-04-17T20:16:12.035Z,0.30
2024-04-17T20:26:15.491Z,0.30
2024-04-17T20:36:19.446Z,0.20
2024-04-17T20:46:22.470Z,0.20
2024-04-17T20:56:25.287Z,0.20
2024-04-17T21:06:29.021Z,0.20
2024-04-17T21:16:32.331Z,0.20
2024-04-17T21:26:34.980Z,0.20
2024-04-17T21:36:37.725Z,0.30
2024-04-17T21:46:40.365Z,0.10
2024-04-17T21:56:46.036Z,0.30
2024-04-17T22:06:49.511Z,0.25
2024-04-17T22:16:52.140Z,0.20
2024-04-17T22:26:57.839Z,0.20
2024-04-17T22:37:00.437Z,0.20
2024-04-17T22:47:03.064Z,0.10
2024-04-17T22:57:05.664Z,0.10
2024-04-17T23:07:09.515Z,0.13
2024-04-17T23:17:12.198Z,0.10
2024-04-17T23:27:14.852Z,0.20
2024-04-17T23:37:17.497Z,0.30
2024-04-17T23:47:20.230Z,0.30
2024-04-17T23:57:22.905Z,0.30
